createdAt,value
2018-03-20T00:00:46.959Z,-5.50
2018-03-20T00:03:13.348Z,-5.50
2018-03-20T00:05:39.775Z,-5.50
2018-03-20T00:08:06.193Z,-5.50
2018-03-20T00:10:32.625Z,-5.50
2018-03-20T00:12:59.030Z,-5.50
2018-03-20T00:15:25.411Z,-5.50
2018-03-20T00:17:51.833Z,-5.50
2018-03-20T00:20:18.286Z,-5.50
2018-03-20T00:22:44.674Z,-5.40
2018-03-20T00:25:11.864Z,-5.40
2018-03-20T00:27:38.254Z,-5.50
2018-03-20T00:30:04.768Z,-5.40
2018-03-20T00:32:31.175Z,-5.50
2018-03-20T00:34:57.723Z,-5.50
2018-03-20T00:37:24.146Z,-5.50
2018-03-20T00:39:50.563Z,-5.50
2018-03-20T00:42:17.028Z,-5.50
2018-03-20T00:44:43.684Z,-5.50
2018-03-20T00:47:10.132Z,-5.50
2018-03-20T00:49:36.546Z,-5.50
2018-03-20T00:52:03.019Z,-5.50
2018-03-20T00:54:30.136Z,-5.60
2018-03-20T00:56:56.571Z,-5.60
2018-03-20T00:59:22.951Z,-5.60
2018-03-20T01:01:49.348Z,-5.60
2018-03-20T01:04:16.530Z,-5.60
2018-03-20T01:06:44.679Z,-5.70
2018-03-20T01:09:11.104Z,-5.60
2018-03-20T01:11:38.294Z,-5.60
2018-03-20T01:14:05.428Z,-5.70
2018-03-20T01:16:32.620Z,-5.60
2018-03-20T01:19:00.020Z,-5.60
2018-03-20T01:21:26.426Z,-5.60
2018-03-20T01:23:52.832Z,-5.60
2018-03-20T01:26:19.239Z,-5.50
2018-03-20T01:28:46.410Z,-5.40
2018-03-20T01:31:12.815Z,-5.40
2018-03-20T01:33:39.959Z,-5.40
2018-03-20T01:36:06.376Z,-5.40
2018-03-20T01:38:32.755Z,-5.30
2018-03-20T01:40:59.174Z,-5.30
2018-03-20T01:43:26.327Z,-5.20
2018-03-20T01:45:52.788Z,-5.20
2018-03-20T01:48:19.205Z,-5.20
2018-03-20T01:50:45.613Z,-5.10
2018-03-20T01:53:17.724Z,-5.10
2018-03-20T01:55:44.175Z,-5.10
2018-03-20T01:58:10.610Z,-5.00
2018-03-20T02:00:38.032Z,-5.00
2018-03-20T02:03:04.440Z,-5.00
2018-03-20T02:05:30.865Z,-4.90
2018-03-20T02:07:57.252Z,-4.90
2018-03-20T02:10:23.700Z,-4.90
2018-03-20T02:12:50.125Z,-4.90
2018-03-20T02:15:16.573Z,-4.90
2018-03-20T02:17:43.004Z,-4.90
2018-03-20T02:20:09.407Z,-4.90
2018-03-20T02:22:35.846Z,-4.80
2018-03-20T02:25:02.259Z,-4.80
2018-03-20T02:27:29.414Z,-4.80
2018-03-20T02:29:56.573Z,-4.80
2018-03-20T02:32:22.984Z,-4.80
2018-03-20T02:34:49.357Z,-4.80
2018-03-20T02:37:15.772Z,-4.80
2018-03-20T02:39:42.163Z,-4.80
2018-03-20T02:42:08.585Z,-4.80
2018-03-20T02:44:34.992Z,-4.80
2018-03-20T02:47:01.205Z,-4.80
2018-03-20T02:49:27.633Z,-4.80
2018-03-20T02:51:54.072Z,-4.90
2018-03-20T02:54:20.476Z,-4.90
2018-03-20T02:56:46.875Z,-4.80
2018-03-20T02:59:13.291Z,-4.80
2018-03-20T03:01:39.823Z,-4.80
2018-03-20T03:04:06.199Z,-4.80
2018-03-20T03:06:32.612Z,-4.80
2018-03-20T03:08:59.019Z,-4.80
2018-03-20T03:11:25.457Z,-4.80
2018-03-20T03:13:51.870Z,-4.80
2018-03-20T03:16:18.303Z,-4.80
2018-03-20T03:18:44.726Z,-4.80
2018-03-20T03:21:11.131Z,-4.80
2018-03-20T03:23:37.523Z,-4.80
2018-03-20T03:26:03.963Z,-4.80
2018-03-20T03:28:30.415Z,-4.80
2018-03-20T03:30:56.871Z,-4.80
2018-03-20T03:33:23.282Z,-4.80
2018-03-20T03:35:50.676Z,-4.70
2018-03-20T03:38:17.069Z,-4.70
2018-03-20T03:40:43.463Z,-4.70
2018-03-20T03:43:10.615Z,-4.70
2018-03-20T03:45:37.775Z,-4.70
2018-03-20T03:48:04.212Z,-4.80
2018-03-20T03:50:30.609Z,-4.70
2018-03-20T03:52:56.996Z,-4.80
2018-03-20T03:55:23.435Z,-4.80
2018-03-20T03:57:49.834Z,-4.80
2018-03-20T04:00:17.276Z,-4.70
2018-03-20T04:02:44.445Z,-4.70
2018-03-20T04:05:10.877Z,-4.80
2018-03-20T04:07:37.288Z,-4.70
2018-03-20T04:10:03.731Z,-4.70
2018-03-20T04:12:30.891Z,-4.60
2018-03-20T04:14:58.059Z,-4.60
2018-03-20T04:17:24.479Z,-4.60
2018-03-20T04:19:50.920Z,-4.60
2018-03-20T04:22:17.351Z,-4.60
2018-03-20T04:24:43.754Z,-4.60
2018-03-20T04:27:10.144Z,-4.60
2018-03-20T04:29:36.596Z,-4.60
2018-03-20T04:32:02.967Z,-4.60
2018-03-20T04:34:30.116Z,-4.70
2018-03-20T04:36:57.251Z,-4.70
2018-03-20T04:39:23.684Z,-4.70
2018-03-20T04:41:50.062Z,-4.70
2018-03-20T04:44:16.468Z,-4.80
2018-03-20T04:46:43.639Z,-4.90
2018-03-20T04:49:10.063Z,-4.90
2018-03-20T04:51:37.175Z,-5.10
2018-03-20T04:54:03.582Z,-5.10
2018-03-20T04:56:29.978Z,-5.10
2018-03-20T04:58:57.173Z,-5.40
2018-03-20T05:01:24.575Z,-5.40
2018-03-20T05:03:51.760Z,-5.60
2018-03-20T05:06:18.131Z,-5.70
2018-03-20T05:08:44.553Z,-5.80
2018-03-20T05:11:10.977Z,-6.00
2018-03-20T05:13:37.380Z,-6.10
2018-03-20T05:16:03.806Z,-6.30
2018-03-20T05:18:30.252Z,-6.40
2018-03-20T05:20:56.663Z,-6.50
2018-03-20T05:26:23.949Z,-6.70
2018-03-20T05:28:50.432Z,-6.80
2018-03-20T05:31:16.844Z,-6.90
2018-03-20T05:33:43.267Z,-7.00
2018-03-20T05:36:10.469Z,-7.10
2018-03-20T05:38:36.887Z,-7.10
2018-03-20T05:41:03.314Z,-7.10
2018-03-20T05:43:29.756Z,-7.10
2018-03-20T05:45:56.147Z,-7.10
2018-03-20T05:51:36.332Z,-7.20
2018-03-20T05:54:03.521Z,-7.10
2018-03-20T05:56:29.918Z,-7.20
2018-03-20T05:58:56.315Z,-7.10
2018-03-20T06:01:22.766Z,-7.10
2018-03-20T06:03:49.135Z,-7.00
2018-03-20T06:06:15.613Z,-7.10
2018-03-20T06:08:41.980Z,-7.10
2018-03-20T06:11:09.127Z,-7.10
2018-03-20T06:13:35.527Z,-7.10
2018-03-20T06:16:01.948Z,-7.00
2018-03-20T06:18:28.341Z,-7.00
2018-03-20T06:20:54.739Z,-6.90
2018-03-20T06:23:21.108Z,-6.90
2018-03-20T06:25:47.532Z,-6.80
2018-03-20T06:28:13.987Z,-6.80
2018-03-20T06:30:40.411Z,-6.70
2018-03-20T06:33:07.489Z,-6.60
2018-03-20T06:35:33.894Z,-6.50
2018-03-20T06:38:00.297Z,-6.50
2018-03-20T06:40:26.715Z,-6.40
2018-03-20T06:42:53.135Z,-6.30
2018-03-20T06:45:19.576Z,-6.30
2018-03-20T06:47:45.958Z,-6.20
2018-03-20T06:50:12.371Z,-6.10
2018-03-20T06:52:38.785Z,-6.00
2018-03-20T06:55:05.983Z,-5.40
2018-03-20T06:57:32.388Z,-5.40
2018-03-20T06:59:59.538Z,-4.50
2018-03-20T07:02:26.697Z,-4.00
2018-03-20T07:04:53.830Z,-3.50
2018-03-20T07:07:20.185Z,-3.50
2018-03-20T07:09:46.620Z,-2.80
2018-03-20T07:12:13.059Z,-2.10
2018-03-20T07:14:39.499Z,-1.50
2018-03-20T07:17:05.899Z,-0.80
2018-03-20T07:19:33.060Z,0.70
2018-03-20T07:21:59.454Z,0.70
2018-03-20T07:24:29.781Z,1.50
2018-03-20T07:26:56.208Z,2.20
2018-03-20T07:29:22.654Z,2.90
2018-03-20T07:31:50.567Z,4.40
2018-03-20T07:34:17.029Z,4.40
2018-03-20T07:36:43.476Z,5.10
2018-03-20T07:39:10.015Z,5.80
2018-03-20T07:41:36.453Z,6.40
2018-03-20T07:44:02.893Z,7.00
2018-03-20T07:46:29.299Z,7.50
2018-03-20T07:48:55.783Z,8.10
2018-03-20T07:51:22.962Z,8.90
2018-03-20T07:53:49.467Z,8.90
2018-03-20T07:56:16.612Z,9.90
2018-03-20T07:58:43.120Z,9.90
2018-03-20T08:01:09.556Z,10.50
2018-03-20T08:03:35.978Z,11.20
2018-03-20T08:06:02.393Z,11.80
2018-03-20T08:08:28.842Z,12.30
2018-03-20T08:10:55.399Z,12.80
2018-03-20T08:13:21.984Z,13.30
2018-03-20T08:15:48.463Z,13.50
2018-03-20T08:18:14.944Z,13.60
2018-03-20T08:20:41.492Z,13.90
2018-03-20T08:23:08.670Z,14.50
2018-03-20T08:25:35.164Z,14.50
2018-03-20T08:28:01.612Z,14.90
2018-03-20T08:30:28.107Z,15.20
2018-03-20T08:32:54.527Z,15.40
2018-03-20T08:35:21.013Z,15.70
2018-03-20T08:37:48.211Z,16.20
2018-03-20T08:40:14.658Z,16.20
2018-03-20T08:42:41.133Z,16.70
2018-03-20T08:45:08.283Z,17.20
2018-03-20T08:47:35.466Z,17.40
2018-03-20T08:50:01.906Z,17.30
2018-03-20T08:52:29.902Z,17.40
2018-03-20T08:54:56.310Z,17.40
2018-03-20T08:57:22.764Z,17.30
2018-03-20T08:59:50.029Z,17.40
2018-03-20T09:02:16.503Z,17.40
2018-03-20T09:04:43.653Z,17.30
2018-03-20T09:07:10.880Z,17.00
2018-03-20T09:09:37.320Z,16.90
2018-03-20T09:12:03.832Z,17.10
2018-03-20T09:14:30.236Z,17.40
2018-03-20T09:16:57.736Z,17.70
2018-03-20T09:19:24.149Z,18.10
2018-03-20T09:21:50.614Z,18.30
2018-03-20T09:24:17.056Z,18.80
2018-03-20T09:26:44.228Z,19.00
2018-03-20T09:29:10.635Z,19.00
2018-03-20T09:31:41.767Z,18.70
2018-03-20T09:34:08.171Z,18.70
2018-03-20T09:36:34.705Z,18.80
2018-03-20T09:39:02.515Z,19.30
2018-03-20T09:41:29.225Z,19.60
2018-03-20T09:43:56.680Z,20.00
2018-03-20T09:46:23.368Z,19.90
2018-03-20T09:48:49.903Z,20.00
2018-03-20T09:51:17.119Z,19.60
2018-03-20T09:53:44.025Z,19.60
2018-03-20T09:56:10.845Z,19.70
2018-03-20T09:58:37.629Z,20.00
2018-03-20T10:01:04.179Z,20.30
2018-03-20T10:03:30.880Z,20.30
2018-03-20T10:05:58.566Z,20.30
2018-03-20T10:08:25.937Z,20.30
2018-03-20T10:10:53.365Z,20.70
2018-03-20T10:13:20.327Z,20.70
2018-03-20T10:15:47.069Z,20.60
2018-03-20T10:18:14.420Z,20.90
2018-03-20T10:20:40.901Z,20.80
2018-03-20T10:23:08.266Z,21.10
2018-03-20T10:25:36.537Z,21.00
2018-03-20T10:28:03.296Z,20.90
2018-03-20T10:30:29.942Z,20.90
2018-03-20T10:32:57.093Z,20.80
2018-03-20T10:35:24.314Z,21.00
2018-03-20T10:37:50.714Z,21.00
2018-03-20T10:40:17.231Z,21.10
2018-03-20T10:42:43.702Z,21.00
2018-03-20T10:45:10.152Z,21.00
2018-03-20T10:47:36.599Z,20.90
2018-03-20T10:50:03.098Z,20.50
2018-03-20T10:52:29.516Z,20.30
2018-03-20T10:54:57.076Z,20.50
2018-03-20T10:57:23.772Z,20.20
2018-03-20T10:59:51.107Z,20.40
2018-03-20T11:02:18.985Z,20.40
2018-03-20T11:04:45.512Z,20.40
2018-03-20T11:07:12.290Z,20.10
2018-03-20T11:09:42.985Z,19.70
2018-03-20T11:12:09.933Z,19.60
2018-03-20T11:14:36.612Z,19.30
2018-03-20T11:17:03.136Z,19.20
2018-03-20T11:19:29.672Z,19.20
2018-03-20T11:21:56.853Z,18.90
2018-03-20T11:24:23.737Z,18.90
2018-03-20T11:26:50.418Z,18.90
2018-03-20T11:29:17.866Z,19.10
2018-03-20T11:31:45.131Z,19.50
2018-03-20T11:34:12.576Z,19.90
2018-03-20T11:36:41.452Z,19.90
2018-03-20T11:39:08.258Z,20.30
2018-03-20T11:41:35.330Z,20.70
2018-03-20T11:44:02.016Z,21.10
2018-03-20T11:46:29.634Z,21.00
2018-03-20T11:48:58.624Z,20.30
2018-03-20T11:51:25.263Z,20.20
2018-03-20T11:53:51.948Z,19.30
2018-03-20T11:56:19.140Z,17.30
2018-03-20T11:58:46.025Z,17.30
2018-03-20T12:01:14.219Z,15.80
2018-03-20T12:03:41.607Z,15.90
2018-03-20T12:06:08.323Z,15.40
2018-03-20T12:08:47.729Z,13.80
2018-03-20T12:11:15.042Z,12.80
2018-03-20T12:13:41.519Z,12.80
2018-03-20T12:16:07.984Z,12.10
2018-03-20T12:18:35.152Z,11.30
2018-03-20T12:21:01.629Z,11.30
2018-03-20T12:23:28.051Z,11.00
2018-03-20T12:25:55.251Z,10.00
2018-03-20T12:28:21.641Z,9.90
2018-03-20T12:30:48.087Z,9.70
2018-03-20T12:33:14.479Z,9.40
2018-03-20T12:35:40.924Z,8.90
2018-03-20T12:38:07.304Z,8.50
2018-03-20T12:40:35.215Z,7.70
2018-03-20T12:43:01.668Z,7.70
2018-03-20T12:45:28.128Z,7.50
2018-03-20T12:47:54.508Z,7.30
2018-03-20T12:50:20.913Z,6.90
2018-03-20T12:52:47.339Z,6.70
2018-03-20T12:55:13.744Z,6.50
2018-03-20T12:57:40.239Z,6.10
2018-03-20T13:00:06.620Z,5.80
2018-03-20T13:02:33.015Z,5.60
2018-03-20T13:04:59.431Z,5.30
2018-03-20T13:07:26.550Z,5.20
2018-03-20T13:09:52.996Z,5.20
2018-03-20T13:12:19.409Z,5.30
2018-03-20T13:14:45.819Z,5.20
2018-03-20T13:17:12.232Z,5.10
2018-03-20T13:19:38.695Z,5.00
2018-03-20T13:22:05.126Z,4.90
2018-03-20T13:24:31.562Z,4.90
2018-03-20T13:26:57.970Z,4.90
2018-03-20T13:29:24.524Z,4.80
2018-03-20T13:31:50.984Z,4.50
2018-03-20T13:34:17.391Z,4.10
2018-03-20T13:36:43.762Z,3.80
2018-03-20T13:39:10.171Z,3.70
2018-03-20T13:41:36.568Z,3.60
2018-03-20T13:44:02.992Z,3.50
2018-03-20T13:46:30.135Z,3.60
2018-03-20T13:48:57.300Z,3.50
2018-03-20T13:51:23.735Z,3.50
2018-03-20T13:53:50.167Z,3.50
2018-03-20T13:56:17.315Z,3.70
2018-03-20T13:58:44.516Z,3.70
2018-03-20T14:01:10.956Z,3.60
2018-03-20T14:03:37.372Z,3.70
2018-03-20T14:06:03.804Z,3.70
2018-03-20T14:08:30.219Z,3.60
2018-03-20T14:10:56.639Z,3.60
2018-03-20T14:13:23.835Z,3.80
2018-03-20T14:15:50.260Z,3.70
2018-03-20T14:18:16.681Z,3.70
2018-03-20T14:20:43.143Z,3.70
2018-03-20T14:23:09.545Z,3.70
2018-03-20T14:25:35.956Z,3.50
2018-03-20T14:28:03.144Z,3.20
2018-03-20T14:30:29.523Z,3.20
2018-03-20T14:32:55.955Z,3.10
2018-03-20T14:35:22.356Z,2.90
2018-03-20T14:37:48.778Z,2.80
2018-03-20T14:40:15.181Z,2.50
2018-03-20T14:42:42.327Z,2.30
2018-03-20T14:45:09.872Z,2.10
2018-03-20T14:47:36.288Z,2.10
2018-03-20T14:50:04.234Z,1.90
2018-03-20T14:52:30.731Z,1.90
2018-03-20T14:54:57.176Z,1.70
2018-03-20T14:57:23.548Z,1.50
2018-03-20T14:59:50.091Z,1.40
2018-03-20T15:02:16.522Z,1.30
2018-03-20T15:04:42.889Z,1.30
2018-03-20T15:07:10.037Z,1.10
2018-03-20T15:09:37.200Z,1.10
2018-03-20T15:12:03.667Z,1.10
2018-03-20T15:14:30.118Z,0.90
2018-03-20T15:16:56.596Z,0.90
2018-03-20T15:19:23.736Z,0.70
2018-03-20T15:21:50.181Z,0.70
2018-03-20T15:24:17.329Z,0.60
2018-03-20T15:26:44.500Z,0.60
2018-03-20T15:29:10.977Z,0.60
2018-03-20T15:31:37.436Z,0.50
2018-03-20T15:34:04.631Z,0.50
2018-03-20T15:36:31.070Z,0.50
2018-03-20T15:38:57.491Z,0.50
2018-03-20T15:41:23.915Z,0.60
2018-03-20T15:43:51.081Z,0.60
2018-03-20T15:46:17.527Z,0.60
2018-03-20T15:48:43.945Z,0.50
2018-03-20T15:51:10.433Z,0.50
2018-03-20T15:53:36.988Z,0.40
2018-03-20T15:56:03.448Z,0.40
2018-03-20T15:58:29.843Z,0.30
2018-03-20T16:00:56.296Z,0.30
2018-03-20T16:03:23.468Z,0.10
2018-03-20T16:05:50.619Z,0.00
2018-03-20T16:08:17.026Z,0.00
2018-03-20T16:10:43.471Z,0.00
2018-03-20T16:13:09.902Z,0.00
2018-03-20T16:15:36.315Z,-0.10
2018-03-20T16:18:02.837Z,-0.10
2018-03-20T16:20:29.632Z,-0.10
2018-03-20T16:22:56.299Z,-0.10
2018-03-20T16:25:22.771Z,-0.10
2018-03-20T16:27:49.180Z,-0.10
2018-03-20T16:30:15.692Z,-0.20
2018-03-20T16:32:42.097Z,-0.20
2018-03-20T16:35:09.258Z,-0.30
2018-03-20T16:37:36.387Z,-0.40
2018-03-20T16:40:03.606Z,-0.40
2018-03-20T16:42:31.135Z,-0.40
2018-03-20T16:44:57.626Z,-0.40
2018-03-20T16:47:26.122Z,-0.40
2018-03-20T16:49:53.347Z,-0.50
2018-03-20T16:52:19.734Z,-0.50
2018-03-20T16:54:50.744Z,-0.50
2018-03-20T16:57:17.146Z,-0.50
2018-03-20T16:59:43.595Z,-0.50
2018-03-20T17:02:10.033Z,-0.50
2018-03-20T17:04:36.649Z,-0.50
2018-03-20T17:07:03.081Z,-0.50
2018-03-20T17:09:35.532Z,-0.50
2018-03-20T17:12:12.795Z,-0.60
2018-03-20T17:14:52.348Z,-0.60
2018-03-20T17:17:24.812Z,-0.60
2018-03-20T17:19:57.140Z,-0.60
2018-03-20T17:22:23.492Z,-0.60
2018-03-20T17:24:49.956Z,-0.70
2018-03-20T17:30:14.703Z,-0.70
2018-03-20T17:32:41.104Z,-0.80
2018-03-20T17:35:08.244Z,-0.90
2018-03-20T17:37:37.467Z,-0.90
2018-03-20T17:40:04.940Z,-0.90
2018-03-20T17:42:41.264Z,-0.90
2018-03-20T17:45:17.547Z,-0.90
2018-03-20T17:48:04.884Z,-0.90
2018-03-20T17:50:44.458Z,-1.00
2018-03-20T17:53:10.958Z,-1.00
2018-03-20T17:55:50.614Z,-1.00
2018-03-20T17:58:26.208Z,-1.00
2018-03-20T18:03:48.167Z,-0.90
2018-03-20T18:06:14.647Z,-0.90
2018-03-20T18:08:41.070Z,-0.90
2018-03-20T18:17:01.381Z,-1.00
2018-03-20T18:19:27.843Z,-1.00
2018-03-20T18:21:54.238Z,-1.00
2018-03-20T18:24:20.671Z,-1.00
2018-03-20T18:26:47.289Z,-1.10
2018-03-20T18:29:13.715Z,-1.00
2018-03-20T18:31:40.335Z,-1.10
2018-03-20T18:34:07.776Z,-1.00
2018-03-20T18:36:34.186Z,-1.10
2018-03-20T18:39:01.354Z,-1.10
2018-03-20T18:41:27.801Z,-1.10
2018-03-20T18:43:54.352Z,-1.10
2018-03-20T18:46:20.789Z,-1.10
2018-03-20T18:48:47.236Z,-1.10
2018-03-20T18:51:13.675Z,-1.10
2018-03-20T18:53:40.107Z,-1.10
2018-03-20T18:56:06.518Z,-1.00
2018-03-20T18:58:32.974Z,-1.10
2018-03-20T19:00:59.396Z,-1.10
2018-03-20T19:03:25.834Z,-1.10
2018-03-20T19:05:52.454Z,-1.10
2018-03-20T19:08:19.901Z,-1.00
2018-03-20T19:10:46.308Z,-1.00
2018-03-20T19:13:13.481Z,-1.10
2018-03-20T19:15:39.863Z,-1.10
2018-03-20T19:18:06.279Z,-1.10
2018-03-20T19:20:32.674Z,-1.10
2018-03-20T19:22:59.122Z,-1.10
2018-03-20T19:25:25.533Z,-1.10
2018-03-20T19:27:52.751Z,-1.10
2018-03-20T19:30:19.161Z,-1.10
2018-03-20T19:32:45.624Z,-1.10
2018-03-20T19:35:12.041Z,-1.10
2018-03-20T19:37:38.440Z,-1.10
2018-03-20T19:40:04.855Z,-1.10
2018-03-20T19:42:31.277Z,-1.10
2018-03-20T19:44:58.428Z,-1.10
2018-03-20T19:47:25.592Z,-1.10
2018-03-20T19:49:52.705Z,-1.10
2018-03-20T19:52:19.111Z,-1.10
2018-03-20T19:54:45.507Z,-1.10
2018-03-20T19:57:12.688Z,-1.10
2018-03-20T19:59:39.104Z,-1.10
2018-03-20T20:02:06.260Z,-1.10
2018-03-20T20:04:33.401Z,-1.10
2018-03-20T20:07:00.553Z,-1.10
2018-03-20T20:09:27.667Z,-1.10
2018-03-20T20:11:54.113Z,-1.10
2018-03-20T20:14:21.301Z,-1.10
2018-03-20T20:16:48.518Z,-1.10
2018-03-20T20:19:14.910Z,-1.10
2018-03-20T20:21:41.311Z,-1.10
2018-03-20T20:24:07.807Z,-1.10
2018-03-20T20:26:34.224Z,-1.10
2018-03-20T20:29:00.646Z,-1.10
2018-03-20T20:31:27.104Z,-1.10
2018-03-20T20:33:53.475Z,-1.10
2018-03-20T20:36:19.923Z,-1.10
2018-03-20T20:38:46.321Z,-1.10
2018-03-20T20:41:13.556Z,-1.10
2018-03-20T20:43:39.947Z,-1.10
2018-03-20T20:46:06.348Z,-1.20
2018-03-20T20:48:33.523Z,-1.20
2018-03-20T20:50:59.928Z,-1.20
2018-03-20T20:53:26.340Z,-1.10
2018-03-20T20:55:52.759Z,-1.10
2018-03-20T20:58:19.211Z,-1.10
2018-03-20T21:00:45.611Z,-1.10
2018-03-20T21:03:12.034Z,-1.10
2018-03-20T21:05:38.454Z,-1.10
2018-03-20T21:08:05.607Z,-1.20
2018-03-20T21:10:32.010Z,-1.20
2018-03-20T21:12:59.183Z,-1.20
2018-03-20T21:15:26.331Z,-1.20
2018-03-20T21:17:53.504Z,-1.20
2018-03-20T21:20:19.931Z,-1.20
2018-03-20T21:22:46.360Z,-1.20
2018-03-20T21:25:13.540Z,-1.20
2018-03-20T21:27:39.928Z,-1.20
2018-03-20T21:30:06.328Z,-1.20
2018-03-20T21:32:32.770Z,-1.20
2018-03-20T21:34:59.160Z,-1.20
2018-03-20T21:37:25.592Z,-1.20
2018-03-20T21:39:52.004Z,-1.20
2018-03-20T21:42:18.424Z,-1.20
2018-03-20T21:44:44.864Z,-1.20
2018-03-20T21:47:12.052Z,-1.20
2018-03-20T21:49:38.467Z,-1.20
2018-03-20T21:52:04.902Z,-1.20
2018-03-20T21:54:31.294Z,-1.20
2018-03-20T21:56:57.727Z,-1.30
2018-03-20T21:59:24.130Z,-1.30
2018-03-20T22:01:50.578Z,-1.30
2018-03-20T22:04:16.977Z,-1.40
2018-03-20T22:06:43.407Z,-1.40
2018-03-20T22:09:09.796Z,-1.40
2018-03-20T22:11:36.231Z,-1.40
2018-03-20T22:14:02.634Z,-1.50
2018-03-20T22:16:29.040Z,-1.50
2018-03-20T22:18:55.436Z,-1.60
2018-03-20T22:21:21.886Z,-1.60
2018-03-20T22:23:49.039Z,-1.70
2018-03-20T22:26:16.212Z,-1.70
2018-03-20T22:28:42.600Z,-1.70
2018-03-20T22:31:09.046Z,-1.70
2018-03-20T22:33:35.440Z,-1.70
2018-03-20T22:36:01.856Z,-1.70
2018-03-20T22:38:28.241Z,-1.80
2018-03-20T22:40:55.420Z,-1.80
2018-03-20T22:43:21.811Z,-1.80
2018-03-20T22:45:48.239Z,-1.80
2018-03-20T22:48:14.654Z,-1.80
2018-03-20T22:50:41.070Z,-1.80
2018-03-20T22:53:07.487Z,-1.80
2018-03-20T22:55:33.932Z,-1.90
2018-03-20T22:58:00.335Z,-1.90
2018-03-20T23:00:27.677Z,-1.90
2018-03-20T23:02:54.075Z,-1.90
2018-03-20T23:05:20.624Z,-1.90
2018-03-20T23:07:47.289Z,-1.80
2018-03-20T23:10:14.053Z,-1.90
2018-03-20T23:12:40.747Z,-1.90
2018-03-20T23:15:08.082Z,-1.90
2018-03-20T23:17:34.569Z,-2.00
2018-03-20T23:20:01.175Z,-2.00
2018-03-20T23:22:27.719Z,-2.00
2018-03-20T23:24:54.372Z,-2.10
2018-03-20T23:27:20.909Z,-2.20
2018-03-20T23:29:47.424Z,-2.30
2018-03-20T23:32:13.957Z,-2.30
2018-03-20T23:34:40.527Z,-2.30
2018-03-20T23:37:07.035Z,-2.40
2018-03-20T23:39:33.752Z,-2.40
2018-03-20T23:42:00.197Z,-2.50
2018-03-20T23:44:26.636Z,-2.50
2018-03-20T23:46:53.024Z,-2.60
2018-03-20T23:49:20.168Z,-2.60
2018-03-20T23:51:46.632Z,-2.60
2018-03-20T23:54:13.027Z,-2.60
2018-03-20T23:56:39.430Z,-2.60
2018-03-20T23:59:05.867Z,-2.70
